sensor_id;sensor_type;location;lat;lon;timestamp;pressure;altitude;pressure_sealevel;temperature;humidity
5238;BME280;2639;49.700;7.962;2023-11-21T07:45:45;98410.44;;;9.01;100.00
5238;BME280;2639;49.700;7.962;2023-11-21T07:46:48;98412.22;;;9.02;100.00
5238;BME280;2639;49.700;7.962;2023-11-21T07:47:51;98413.34;;;9.06;100.00
5238;BME280;2639;49.700;7.962;2023-11-21T07:48:55;98412.69;;;9.09;100.00
5238;BME280;2639;49.700;7.962;2023-11-21T07:49:57;98412.69;;;9.09;100.00
5238;BME280;2639;49.700;7.962;2023-11-21T07:51:01;98421.91;;;9.06;100.00
5238;BME280;2639;49.700;7.962;2023-11-21T07:52:03;98426.34;;;8.97;100.00
5238;BME280;2639;49.700;7.962;2023-11-21T07:53:06;98424.88;;;8.89;100.00
5238;BME280;2639;49.700;7.962;2023-11-21T07:54:08;98428.47;;;8.91;100.00
5238;BME280;2639;49.700;7.962;2023-11-21T07:55:11;98429.09;;;8.89;100.00
5238;BME280;2639;49.700;7.962;2023-11-21T07:56:13;98433.44;;;8.90;100.00
5238;BME280;2639;49.700;7.962;2023-11-21T07:57:16;98430.22;;;8.92;100.00
5238;BME280;2639;49.700;7.962;2023-11-21T07:58:18;98436.34;;;8.94;100.00
5238;BME280;2639;49.700;7.962;2023-11-21T07:59:21;98438.25;;;8.97;100.00
5238;BME280;2639;49.700;7.962;2023-11-21T08:00:23;98438.59;;;9.01;100.00
5238;BME280;2639;49.700;7.962;2023-11-21T08:01:27;98440.50;;;9.04;100.00
5238;BME280;2639;49.700;7.962;2023-11-21T08:02:29;98448.31;;;9.05;100.00
5238;BME280;2639;49.700;7.962;2023-11-21T08:03:32;98457.91;;;9.08;100.00
5238;BME280;2639;49.700;7.962;2023-11-21T08:04:34;98445.44;;;9.13;100.00
5238;BME280;2639;49.700;7.962;2023-11-21T08:05:38;98446.09;;;9.10;100.00
5238;BME280;2639;49.700;7.962;2023-11-21T08:06:40;98445.44;;;9.13;100.00
5238;BME280;2639;49.700;7.962;2023-11-21T08:07:43;98443.63;;;9.12;100.00
5238;BME280;2639;49.700;7.962;2023-11-21T08:08:45;98446.97;;;9.11;100.00
5238;BME280;2639;49.700;7.962;2023-11-21T08:09:49;98450.31;;;9.10;100.00
5238;BME280;2639;49.700;7.962;2023-11-21T08:10:51;98452.09;;;9.11;100.00
5238;BME280;2639;49.700;7.962;2023-11-21T08:11:57;98448.41;;;9.07;100.00
5238;BME280;2639;49.700;7.962;2023-11-21T08:13:02;98452.88;;;9.10;100.00
5238;BME280;2639;49.700;7.962;2023-11-21T08:14:05;98452.09;;;9.11;100.00
5238;BME280;2639;49.700;7.962;2023-11-21T08:15:08;98446.09;;;9.10;100.00
5238;BME280;2639;49.700;7.962;2023-11-21T08:16:12;98452.88;;;9.10;100.00
5238;BME280;2639;49.700;7.962;2023-11-21T08:17:15;98456.34;;;9.10;100.00
5238;BME280;2639;49.700;7.962;2023-11-21T08:18:19;98463.38;;;9.13;100.00
5238;BME280;2639;49.700;7.962;2023-11-21T08:19:21;98465.91;;;9.13;100.00
5238;BME280;2639;49.700;7.962;2023-11-21T08:20:26;98459.00;;;9.12;100.00
5238;BME280;2639;49.700;7.962;2023-11-21T08:21:29;98458.78;;;9.09;100.00
5238;BME280;2639;49.700;7.962;2023-11-21T08:22:32;98465.66;;;9.10;100.00
5238;BME280;2639;49.700;7.962;2023-11-21T08:23:35;98460.31;;;9.06;100.00
5238;BME280;2639;49.700;7.962;2023-11-21T08:24:38;98464.56;;;9.06;100.00
5238;BME280;2639;49.700;7.962;2023-11-21T08:25:40;98458.56;;;9.05;100.00
5238;BME280;2639;49.700;7.962;2023-11-21T08:26:43;98464.56;;;9.06;100.00
5238;BME280;2639;49.700;7.962;2023-11-21T08:27:45;98464.44;;;9.04;100.00
5238;BME280;2639;49.700;7.962;2023-11-21T08:28:48;98460.84;;;9.02;100.00
5238;BME280;2639;49.700;7.962;2023-11-21T08:29:50;98465.97;;;9.02;100.00
5238;BME280;2639;49.700;7.962;2023-11-21T08:30:53;98471.22;;;9.04;100.00
5238;BME280;2639;49.700;7.962;2023-11-21T08:31:56;98468.81;;;9.05;100.00
5238;BME280;2639;49.700;7.962;2023-11-21T08:33:00;98466.69;;;9.12;100.00
5238;BME280;2639;49.700;7.962;2023-11-21T08:34:02;98461.69;;;9.13;100.00
5238;BME280;2639;49.700;7.962;2023-11-21T08:35:06;98474.03;;;9.19;100.00
5238;BME280;2639;49.700;7.962;2023-11-21T08:36:09;98466.16;;;9.16;100.00
5238;BME280;2639;49.700;7.962;2023-11-21T08:37:14;98469.81;;;9.08;100.00
5238;BME280;2639;49.700;7.962;2023-11-21T08:38:17;98472.38;;;9.08;100.00
5238;BME280;2639;49.700;7.962;2023-11-21T08:39:20;98472.13;;;9.04;100.00
5238;BME280;2639;49.700;7.962;2023-11-21T08:40:22;98471.38;;;9.05;100.00
5238;BME280;2639;49.700;7.962;2023-11-21T08:41:25;98478.03;;;9.03;100.00
5238;BME280;2639;49.700;7.962;2023-11-21T08:42:29;98470.44;;;9.05;100.00
5238;BME280;2639;49.700;7.962;2023-11-21T08:43:32;98478.59;;;9.11;100.00
5238;BME280;2639;49.700;7.962;2023-11-21T08:44:34;98475.50;;;9.15;100.00
5238;BME280;2639;49.700;7.962;2023-11-21T08:45:37;98479.28;;;9.20;100.00
5238;BME280;2639;49.700;7.962;2023-11-21T08:46:40;98476.88;;;9.22;100.00
5238;BME280;2639;49.700;7.962;2023-11-21T08:47:43;98471.84;;;9.23;100.00
5238;BME280;2639;49.700;7.962;2023-11-21T08:48:48;98480.50;;;9.14;100.00
5238;BME280;2639;49.700;7.962;2023-11-21T08:49:50;98479.75;;;9.15;100.00
5238;BME280;2639;49.700;7.962;2023-11-21T08:50:54;98487.44;;;9.15;100.00
5238;BME280;2639;49.700;7.962;2023-11-21T08:51:56;98483.06;;;9.14;100.00
5238;BME280;2639;49.700;7.962;2023-11-21T08:53:01;98483.41;;;9.18;100.00
5238;BME280;2639;49.700;7.962;2023-11-21T08:54:03;98489.53;;;9.20;100.00
5238;BME280;2639;49.700;7.962;2023-11-21T08:55:09;98488.13;;;9.24;100.00
5238;BME280;2639;49.700;7.962;2023-11-21T08:56:13;98494.25;;;9.26;100.00
5238;BME280;2639;49.700;7.962;2023-11-21T08:57:17;98496.25;;;9.30;100.00
5238;BME280;2639;49.700;7.962;2023-11-21T08:58:19;98495.59;;;9.33;100.00
5238;BME280;2639;49.700;7.962;2023-11-21T08:59:21;98497.38;;;9.34;100.00
5238;BME280;2639;49.700;7.962;2023-11-21T09:00:23;98498.28;;;9.34;100.00
5238;BME280;2639;49.700;7.962;2023-11-21T09:01:26;98492.13;;;9.32;100.00
5238;BME280;2639;49.700;7.962;2023-11-21T09:02:28;98497.78;;;9.28;100.00
5238;BME280;2639;49.700;7.962;2023-11-21T09:03:30;98494.00;;;9.23;100.00
5238;BME280;2639;49.700;7.962;2023-11-21T09:04:36;98503.81;;;9.17;100.00
5238;BME280;2639;49.700;7.962;2023-11-21T09:05:41;98501.78;;;9.13;100.00
5238;BME280;2639;49.700;7.962;2023-11-21T09:06:44;98499.56;;;9.17;100.00
5238;BME280;2639;49.700;7.962;2023-11-21T09:07:46;98502.88;;;9.16;100.00
5238;BME280;2639;49.700;7.962;2023-11-21T09:08:51;98501.78;;;9.13;100.00
5238;BME280;2639;49.700;7.962;2023-11-21T09:09:54;98498.44;;;9.14;100.00
5238;BME280;2639;49.700;7.962;2023-11-21T09:10:56;98503.16;;;9.19;100.00
5238;BME280;2639;49.700;7.962;2023-11-21T09:11:59;98506.06;;;9.24;100.00
5238;BME280;2639;49.700;7.962;2023-11-21T09:13:03;98508.97;;;9.29;100.00
5238;BME280;2639;49.700;7.962;2023-11-21T09:14:06;98507.50;;;9.32;100.00
5238;BME280;2639;49.700;7.962;2023-11-21T09:15:08;98508.75;;;9.37;100.00
5238;BME280;2639;49.700;7.962;2023-11-21T09:16:11;98506.97;;;9.36;100.00
5238;BME280;2639;49.700;7.962;2023-11-21T09:17:14;98520.78;;;9.38;100.00
5238;BME280;2639;49.700;7.962;2023-11-21T09:18:16;98519.25;;;9.40;100.00
5238;BME280;2639;49.700;7.962;2023-11-21T09:19:19;98513.88;;;9.37;100.00
5238;BME280;2639;49.700;7.962;2023-11-21T09:20:22;98509.00;;;9.40;100.00
5238;BME280;2639;49.700;7.962;2023-11-21T09:21:25;98516.09;;;9.44;100.00
5238;BME280;2639;49.700;7.962;2023-11-21T09:22:30;98517.91;;;9.45;100.00
5238;BME280;2639;49.700;7.962;2023-11-21T09:23:33;98517.38;;;9.50;100.00
5238;BME280;2639;49.700;7.962;2023-11-21T09:24:35;98521.00;;;9.41;100.00
5238;BME280;2639;49.700;7.962;2023-11-21T09:25:41;98517.69;;;9.42;100.00
5238;BME280;2639;49.700;7.962;2023-11-21T09:26:43;98517.56;;;9.41;100.00
5238;BME280;2639;49.700;7.962;2023-11-21T09:27:47;98521.00;;;9.41;100.00
5238;BME280;2639;49.700;7.962;2023-11-21T09:28:49;98523.56;;;9.41;100.00
5238;BME280;2639;49.700;7.962;2023-11-21T09:29:51;98526.13;;;9.41;100.00
5238;BME280;2639;49.700;7.962;2023-11-21T09:30:54;98527.69;;;9.39;100.00
5238;BME280;2639;49.700;7.962;2023-11-21T09:31:57;98527.25;;;9.33;100.00
5238;BME280;2639;49.700;7.962;2023-11-21T09:33:01;98525.03;;;9.38;100.00
5238;BME280;2639;49.700;7.962;2023-11-21T09:34:04;98530.16;;;9.38;100.00
5238;BME280;2639;49.700;7.962;2023-11-21T09:35:08;98532.81;;;9.39;100.00
5238;BME280;2639;49.700;7.962;2023-11-21T09:36:13;98533.25;;;9.34;100.00
5238;BME280;2639;49.700;7.962;2023-11-21T09:37:16;98536.56;;;9.33;100.00
5238;BME280;2639;49.700;7.962;2023-11-21T09:38:18;98534.59;;;9.29;100.00
5238;BME280;2639;49.700;7.962;2023-11-21T09:39:21;98538.78;;;9.28;100.00
5238;BME280;2639;49.700;7.962;2023-11-21T09:40:23;98545.25;;;9.23;100.00
5238;BME280;2639;49.700;7.962;2023-11-21T09:41:33;98548.81;;;9.25;100.00
5238;BME280;2639;49.700;7.962;2023-11-21T09:42:48;98543.03;;;9.27;100.00
5238;BME280;2639;49.700;7.962;2023-11-21T09:43:54;98550.84;;;9.29;100.00
5238;BME280;2639;49.700;7.962;2023-11-21T09:45:03;98554.41;;;9.31;100.00
5238;BME280;2639;49.700;7.962;2023-11-21T09:46:09;98544.38;;;9.34;100.00
5238;BME280;2639;49.700;7.962;2023-11-21T09:47:15;98548.97;;;9.38;100.00
5238;BME280;2639;49.700;7.962;2023-11-21T09:48:19;98545.53;;;9.38;100.00
5238;BME280;2639;49.700;7.962;2023-11-21T09:49:23;98550.00;;;9.40;100.00
5238;BME280;2639;49.700;7.962;2023-11-21T09:50:27;98546.50;;;9.40;100.00
5238;BME280;2639;49.700;7.962;2023-11-21T09:51:32;98557.78;;;9.42;100.00
5238;BME280;2639;49.700;7.962;2023-11-21T09:52:44;98556.47;;;9.47;100.00
5238;BME280;2639;49.700;7.962;2023-11-21T09:53:52;98556.13;;;9.42;100.00
5238;BME280;2639;49.700;7.962;2023-11-21T09:54:55;98553.56;;;9.42;100.00
5238;BME280;2639;49.700;7.962;2023-11-21T09:56:00;98552.25;;;9.47;100.00
5238;BME280;2639;49.700;7.962;2023-11-21T09:57:04;98558.25;;;9.48;100.00
5238;BME280;2639;49.700;7.962;2023-11-21T09:58:08;98555.56;;;9.46;100.00
5238;BME280;2639;49.700;7.962;2023-11-21T09:59:15;98560.16;;;9.51;100.00
5238;BME280;2639;49.700;7.962;2023-11-21T10:00:18;98562.84;;;9.52;100.00
5238;BME280;2639;49.700;7.962;2023-11-21T10:01:23;98557.38;;;9.47;100.00
5238;BME280;2639;49.700;7.962;2023-11-21T10:02:28;98566.06;;;9.50;100.00
5238;BME280;2639;49.700;7.962;2023-11-21T10:03:31;98563.38;;;9.48;100.00
5238;BME280;2639;49.700;7.962;2023-11-21T10:04:35;98569.50;;;9.50;100.00
5238;BME280;2639;49.700;7.962;2023-11-21T10:05:37;98566.50;;;9.56;100.00
5238;BME280;2639;49.700;7.962;2023-11-21T10:06:44;98569.53;;;9.62;100.00
5238;BME280;2639;49.700;7.962;2023-11-21T10:07:49;98570.78;;;9.67;100.00
5238;BME280;2639;49.700;7.962;2023-11-21T10:08:52;98574.13;;;9.66;100.00
5238;BME280;2639;49.700;7.962;2023-11-21T10:09:57;98575.69;;;9.64;100.00
5238;BME280;2639;49.700;7.962;2023-11-21T10:11:04;98573.66;;;9.60;100.00
5238;BME280;2639;49.700;7.962;2023-11-21T10:12:10;98579.31;;;9.56;100.00
5238;BME280;2639;49.700;7.962;2023-11-21T10:13:14;98578.66;;;9.58;100.00
5238;BME280;2639;49.700;7.962;2023-11-21T10:14:21;98575.47;;;9.61;100.00
5238;BME280;2639;49.700;7.962;2023-11-21T10:15:27;98573.88;;;9.63;100.00
5238;BME280;2639;49.700;7.962;2023-11-21T10:16:29;98581.47;;;9.61;100.00
5238;BME280;2639;49.700;7.962;2023-11-21T10:17:35;98574.44;;;9.59;100.00
5238;BME280;2639;49.700;7.962;2023-11-21T10:18:44;98584.78;;;9.60;100.00
5238;BME280;2639;49.700;7.962;2023-11-21T10:19:48;98588.38;;;9.62;100.00
5238;BME280;2639;49.700;7.962;2023-11-21T10:20:51;98591.06;;;9.64;100.00
5238;BME280;2639;49.700;7.962;2023-11-21T10:21:57;98587.72;;;9.65;100.00
5238;BME280;2639;49.700;7.962;2023-11-21T10:23:01;98592.16;;;9.67;100.00
5238;BME280;2639;49.700;7.962;2023-11-21T10:24:05;98584.59;;;9.69;100.00
5238;BME280;2639;49.700;7.962;2023-11-21T10:25:08;98596.66;;;9.70;100.00
5238;BME280;2639;49.700;7.962;2023-11-21T10:26:12;98599.78;;;9.66;100.00
5238;BME280;2639;49.700;7.962;2023-11-21T10:27:20;98598.22;;;9.68;100.00
5238;BME280;2639;49.700;7.962;2023-11-21T10:28:22;98599.09;;;9.68;100.00
5238;BME280;2639;49.700;7.962;2023-11-21T10:29:24;98601.34;;;9.76;100.00
5238;BME280;2639;49.700;7.962;2023-11-21T10:30:32;98600.00;;;9.81;100.00
5238;BME280;2639;49.700;7.962;2023-11-21T10:31:38;98600.50;;;9.87;100.00
5238;BME280;2639;49.700;7.962;2023-11-21T10:32:41;98603.41;;;9.92;100.00
5238;BME280;2639;49.700;7.962;2023-11-21T10:33:45;98604.50;;;9.95;100.00
5238;BME280;2639;49.700;7.962;2023-11-21T10:34:55;98604.50;;;9.95;100.00
5238;BME280;2639;49.700;7.962;2023-11-21T10:35:58;98605.63;;;9.99;100.00
5238;BME280;2639;49.700;7.962;2023-11-21T10:37:12;98601.84;;;10.05;100.00
5238;BME280;2639;49.700;7.962;2023-11-21T10:38:15;98607.34;;;10.10;100.00
5238;BME280;2639;49.700;7.962;2023-11-21T10:39:18;98603.53;;;10.05;100.00
5238;BME280;2639;49.700;7.962;2023-11-21T10:40:22;98603.53;;;10.05;100.00
5238;BME280;2639;49.700;7.962;2023-11-21T10:41:24;98606.31;;;10.08;100.00
5238;BME280;2639;49.700;7.962;2023-11-21T10:42:27;98600.31;;;10.07;100.00
5238;BME280;2639;49.700;7.962;2023-11-21T10:43:29;98603.09;;;10.10;100.00
5238;BME280;2639;49.700;7.962;2023-11-21T10:44:34;98601.97;;;10.19;100.00
5238;BME280;2639;49.700;7.962;2023-11-21T10:45:37;98598.97;;;10.24;100.00
5238;BME280;2639;49.700;7.962;2023-11-21T10:46:40;98601.25;;;10.31;100.00
5238;BME280;2639;49.700;7.962;2023-11-21T10:47:44;98603.47;;;10.39;100.00
5238;BME280;2639;49.700;7.962;2023-11-21T10:48:52;98596.31;;;10.46;100.00
5238;BME280;2639;49.700;7.962;2023-11-21T10:49:55;98598.44;;;10.52;100.00
5238;BME280;2639;49.700;7.962;2023-11-21T10:50:58;98596.97;;;10.56;100.00
5238;BME280;2639;49.700;7.962;2023-11-21T10:52:00;98594.75;;;10.60;100.00
5238;BME280;2639;49.700;7.962;2023-11-21T10:53:05;98597.31;;;10.60;100.00
5238;BME280;2639;49.700;7.962;2023-11-21T10:54:07;98597.66;;;10.53;100.00
5238;BME280;2639;49.700;7.962;2023-11-21T10:55:17;98604.25;;;10.49;100.00
5238;BME280;2639;49.700;7.962;2023-11-21T10:56:23;98604.13;;;10.48;100.00
5238;BME280;2639;49.700;7.962;2023-11-21T10:57:26;98601.69;;;10.49;100.00
5238;BME280;2639;49.700;7.962;2023-11-21T10:58:29;98602.56;;;10.50;100.00
5238;BME280;2639;49.700;7.962;2023-11-21T10:59:34;98600.81;;;10.49;100.00
5238;BME280;2639;49.700;7.962;2023-11-21T11:00:37;98594.31;;;10.54;100.00
5238;BME280;2639;49.700;7.962;2023-11-21T11:01:44;98587.19;;;10.50;100.00
5238;BME280;2639;49.700;7.962;2023-11-21T11:02:49;98598.66;;;10.55;100.00
5238;BME280;2639;49.700;7.962;2023-11-21T11:03:52;98598.09;;;10.59;100.00
5238;BME280;2639;49.700;7.962;2023-11-21T11:04:57;98607.72;;;10.50;100.00
5238;BME280;2639;49.700;7.962;2023-11-21T11:06:01;98592.09;;;10.47;100.00
5238;BME280;2639;49.700;7.962;2023-11-21T11:07:05;98599.00;;;10.48;100.00
5238;BME280;2639;49.700;7.962;2023-11-21T11:08:12;98600.47;;;10.44;100.00
5238;BME280;2639;49.700;7.962;2023-11-21T11:09:20;98602.38;;;10.47;100.00
5238;BME280;2639;49.700;7.962;2023-11-21T11:10:23;98604.34;;;10.51;100.00
5238;BME280;2639;49.700;7.962;2023-11-21T11:11:28;98591.84;;;10.56;100.00
5238;BME280;2639;49.700;7.962;2023-11-21T11:12:32;98599.88;;;10.60;100.00
5238;BME280;2639;49.700;7.962;2023-11-21T11:13:34;98591.41;;;10.61;100.00
5238;BME280;2639;49.700;7.962;2023-11-21T11:14:40;98594.75;;;10.60;100.00
5238;BME280;2639;49.700;7.962;2023-11-21T11:15:42;98598.09;;;10.59;100.00
5238;BME280;2639;49.700;7.962;2023-11-21T11:16:47;98589.59;;;10.60;100.00
5238;BME280;2639;49.700;7.962;2023-11-21T11:17:51;98593.44;;;10.65;100.00
5238;BME280;2639;49.700;7.962;2023-11-21T11:18:58;98590.41;;;10.59;100.00
5238;BME280;2639;49.700;7.962;2023-11-21T11:20:00;98581.69;;;10.57;100.00
5238;BME280;2639;49.700;7.962;2023-11-21T11:21:10;98591.41;;;10.61;100.00
5238;BME280;2639;49.700;7.962;2023-11-21T11:22:33;98591.19;;;10.70;100.00
5238;BME280;2639;49.700;7.962;2023-11-21T11:23:52;98584.47;;;10.84;100.00
5238;BME280;2639;49.700;7.962;2023-11-21T11:25:24;98580.94;;;10.95;100.00
5238;BME280;2639;49.700;7.962;2023-11-21T11:26:34;98581.94;;;10.97;100.00
5238;BME280;2639;49.700;7.962;2023-11-21T11:27:50;98590.66;;;10.99;100.00
5238;BME280;2639;49.700;7.962;2023-11-21T11:29:02;98586.22;;;10.97;99.87
5238;BME280;2639;49.700;7.962;2023-11-21T11:30:16;98586.41;;;11.00;99.29
5238;BME280;2639;49.700;7.962;2023-11-21T11:31:30;98577.06;;;11.00;99.34
5238;BME280;2639;49.700;7.962;2023-11-21T11:32:43;98587.31;;;11.00;98.21
5238;BME280;2639;49.700;7.962;2023-11-21T11:33:53;98577.38;;;11.05;97.99
5238;BME280;2639;49.700;7.962;2023-11-21T11:35:03;98587.31;;;11.00;96.39
5238;BME280;2639;49.700;7.962;2023-11-21T11:36:08;98584.88;;;10.90;97.08
5238;BME280;2639;49.700;7.962;2023-11-21T11:37:14;98582.09;;;10.87;98.06
5238;BME280;2639;49.700;7.962;2023-11-21T11:38:16;98582.47;;;10.80;97.49
5238;BME280;2639;49.700;7.962;2023-11-21T11:39:29;98587.25;;;10.87;96.67
5238;BME280;2639;49.700;7.962;2023-11-21T11:40:39;98581.03;;;11.08;97.04
5238;BME280;2639;49.700;7.962;2023-11-21T11:41:44;98584.03;;;11.14;96.05
5238;BME280;2639;49.700;7.962;2023-11-21T11:42:56;98584.41;;;11.07;92.93
5238;BME280;2639;49.700;7.962;2023-11-21T11:44:00;98584.41;;;11.07;93.59
5238;BME280;2639;49.700;7.962;2023-11-21T11:45:17;98583.69;;;11.22;93.44
5238;BME280;2639;49.700;7.962;2023-11-21T11:46:20;98588.34;;;11.27;93.10
5238;BME280;2639;49.700;7.962;2023-11-21T11:47:25;98578.81;;;11.38;92.70
5238;BME280;2639;49.700;7.962;2023-11-21T11:48:35;98586.66;;;11.53;92.28
5238;BME280;2639;49.700;7.962;2023-11-21T11:49:55;98590.16;;;11.67;91.33
5238;BME280;2639;49.700;7.962;2023-11-21T11:51:03;98587.03;;;11.71;90.95
5238;BME280;2639;49.700;7.962;2023-11-21T11:53:35;98584.19;;;12.05;91.59
5238;BME280;2639;49.700;7.962;2023-11-21T11:54:39;98575.84;;;12.09;89.78
5238;BME280;2639;49.700;7.962;2023-11-21T11:55:43;98586.38;;;12.12;88.84
5238;BME280;2639;49.700;7.962;2023-11-21T11:56:47;98580.81;;;12.06;87.82
5238;BME280;2639;49.700;7.962;2023-11-21T11:57:50;98579.13;;;12.06;88.15
5238;BME280;2639;49.700;7.962;2023-11-21T11:58:59;98579.34;;;12.09;87.65
5238;BME280;2639;49.700;7.962;2023-11-21T12:00:10;98577.84;;;12.13;87.24
5238;BME280;2639;49.700;7.962;2023-11-21T12:01:13;98575.38;;;12.14;87.67
5238;BME280;2639;49.700;7.962;2023-11-21T12:02:22;98582.19;;;12.27;87.47
5238;BME280;2639;49.700;7.962;2023-11-21T12:03:24;98584.19;;;12.31;87.15
5238;BME280;2639;49.700;7.962;2023-11-21T12:04:28;98583.97;;;12.41;86.02
5238;BME280;2639;49.700;7.962;2023-11-21T12:05:36;98582.09;;;12.39;84.23
5238;BME280;2639;49.700;7.962;2023-11-21T12:06:41;98582.72;;;12.35;83.41
5238;BME280;2639;49.700;7.962;2023-11-21T12:07:46;98590.91;;;12.29;83.25
5238;BME280;2639;49.700;7.962;2023-11-21T12:08:50;98586.97;;;12.21;82.73
5238;BME280;2639;49.700;7.962;2023-11-21T12:09:55;98586.53;;;12.02;82.72
5238;BME280;2639;49.700;7.962;2023-11-21T12:10:57;98588.78;;;11.97;84.43
5238;BME280;2639;49.700;7.962;2023-11-21T12:12:00;98592.00;;;11.81;84.00
5238;BME280;2639;49.700;7.962;2023-11-21T12:13:06;98595.75;;;11.73;83.44
5238;BME280;2639;49.700;7.962;2023-11-21T12:14:10;98596.00;;;11.64;83.90
5238;BME280;2639;49.700;7.962;2023-11-21T12:15:12;98594.69;;;11.57;85.03
5238;BME280;2639;49.700;7.962;2023-11-21T12:16:14;98596.25;;;11.55;85.56
5238;BME280;2639;49.700;7.962;2023-11-21T12:17:17;98590.72;;;11.49;84.77
5238;BME280;2639;49.700;7.962;2023-11-21T12:18:19;98595.63;;;11.46;86.16
5238;BME280;2639;49.700;7.962;2023-11-21T12:19:22;98596.81;;;11.38;85.89
5238;BME280;2639;49.700;7.962;2023-11-21T12:20:25;98589.84;;;11.37;86.39
5238;BME280;2639;49.700;7.962;2023-11-21T12:21:29;98598.56;;;11.39;85.83
5238;BME280;2639;49.700;7.962;2023-11-21T12:22:31;98589.84;;;11.37;85.34
5238;BME280;2639;49.700;7.962;2023-11-21T12:23:34;98594.03;;;11.35;86.71
5238;BME280;2639;49.700;7.962;2023-11-21T12:24:37;98597.56;;;11.37;87.52
5238;BME280;2639;49.700;7.962;2023-11-21T12:25:40;98603.72;;;11.39;87.78
5238;BME280;2639;49.700;7.962;2023-11-21T12:26:44;98598.31;;;11.48;88.19
5238;BME280;2639;49.700;7.962;2023-11-21T12:27:47;98596.25;;;11.55;87.14
5238;BME280;2639;49.700;7.962;2023-11-21T12:28:52;98603.84;;;11.66;86.94
5238;BME280;2639;49.700;7.962;2023-11-21T12:29:56;98597.06;;;11.79;87.22
5238;BME280;2639;49.700;7.962;2023-11-21T12:30:59;98605.50;;;11.90;87.09
5238;BME280;2639;49.700;7.962;2023-11-21T12:32:15;98599.63;;;12.05;85.45
5238;BME280;2639;49.700;7.962;2023-11-21T12:33:20;98599.81;;;12.08;85.15
5238;BME280;2639;49.700;7.962;2023-11-21T12:34:22;98602.19;;;12.18;85.38
5238;BME280;2639;49.700;7.962;2023-11-21T12:35:26;98606.19;;;12.26;85.36
5238;BME280;2639;49.700;7.962;2023-11-21T12:36:29;98605.97;;;12.36;84.69
5238;BME280;2639;49.700;7.962;2023-11-21T12:37:32;98601.63;;;12.35;83.79
5238;BME280;2639;49.700;7.962;2023-11-21T12:38:35;98613.50;;;12.33;83.46
5238;BME280;2639;49.700;7.962;2023-11-21T12:39:36;98611.50;;;12.29;81.49
5238;BME280;2639;49.700;7.962;2023-11-21T12:40:41;98612.03;;;12.24;81.42
5238;BME280;2639;49.700;7.962;2023-11-21T12:41:43;98621.44;;;12.23;82.86
5238;BME280;2639;49.700;7.962;2023-11-21T12:42:48;98615.28;;;12.21;83.31
5238;BME280;2639;49.700;7.962;2023-11-21T12:43:50;98616.06;;;12.20;83.34
5238;BME280;2639;49.700;7.962;2023-11-21T12:45:07;98619.22;;;12.16;81.82
5238;BME280;2639;49.700;7.962;2023-11-21T12:46:11;98610.53;;;12.14;81.62
5238;BME280;2639;49.700;7.962;2023-11-21T12:47:17;98612.88;;;12.11;82.38
5238;BME280;2639;49.700;7.962;2023-11-21T12:48:20;98611.31;;;12.13;82.86
5238;BME280;2639;49.700;7.962;2023-11-21T12:49:26;98617.63;;;12.18;83.06
5238;BME280;2639;49.700;7.962;2023-11-21T12:50:31;98616.63;;;12.16;82.67
5238;BME280;2639;49.700;7.962;2023-11-21T12:51:35;98621.19;;;12.20;82.26
5238;BME280;2639;49.700;7.962;2023-11-21T12:52:39;98618.16;;;12.26;81.88
5238;BME280;2639;49.700;7.962;2023-11-21T12:53:42;98612.91;;;12.24;80.53
5238;BME280;2639;49.700;7.962;2023-11-21T12:54:45;98622.81;;;12.31;81.65
5238;BME280;2639;49.700;7.962;2023-11-21T12:55:51;98614.09;;;12.29;80.82
5238;BME280;2639;49.700;7.962;2023-11-21T12:56:59;98622.69;;;12.30;80.50
5238;BME280;2639;49.700;7.962;2023-11-21T12:58:02;98619.22;;;12.16;79.77
5238;BME280;2639;49.700;7.962;2023-11-21T12:59:12;98620.22;;;12.05;80.40
5238;BME280;2639;49.700;7.962;2023-11-21T13:00:19;98624.06;;;11.98;79.39
5238;BME280;2639;49.700;7.962;2023-11-21T13:01:29;98619.78;;;11.98;80.45
5238;BME280;2639;49.700;7.962;2023-11-21T13:02:33;98619.97;;;12.02;81.45
5238;BME280;2639;49.700;7.962;2023-11-21T13:03:39;98623.75;;;12.07;80.59
5238;BME280;2639;49.700;7.962;2023-11-21T13:04:42;98620.41;;;12.08;80.51
5238;BME280;2639;49.700;7.962;2023-11-21T13:05:46;98616.44;;;12.13;80.38
5238;BME280;2639;49.700;7.962;2023-11-21T13:06:53;98619.22;;;12.16;80.13
5238;BME280;2639;49.700;7.962;2023-11-21T13:07:58;98614.66;;;12.25;81.17
5238;BME280;2639;49.700;7.962;2023-11-21T13:09:02;98620.44;;;12.34;80.56
5238;BME280;2639;49.700;7.962;2023-11-21T13:10:07;98621.22;;;12.33;80.11
5238;BME280;2639;49.700;7.962;2023-11-21T13:11:11;98614.09;;;12.42;81.32
5238;BME280;2639;49.700;7.962;2023-11-21T13:12:15;98619.66;;;12.49;80.27
5238;BME280;2639;49.700;7.962;2023-11-21T13:13:19;98622.41;;;12.38;79.05
5238;BME280;2639;49.700;7.962;2023-11-21T13:14:29;98616.78;;;12.44;79.83
5238;BME280;2639;49.700;7.962;2023-11-21T13:15:31;98614.28;;;12.46;79.31
5238;BME280;2639;49.700;7.962;2023-11-21T13:16:36;98613.59;;;12.48;78.73
5238;BME280;2639;49.700;7.962;2023-11-21T13:17:40;98622.44;;;12.52;78.65
5238;BME280;2639;49.700;7.962;2023-11-21T13:18:42;98618.16;;;12.52;79.01
5238;BME280;2639;49.700;7.962;2023-11-21T13:19:45;98625.00;;;12.52;79.24
5238;BME280;2639;49.700;7.962;2023-11-21T13:20:47;98620.34;;;12.46;79.45
5238;BME280;2639;49.700;7.962;2023-11-21T13:21:52;98627.97;;;12.45;80.01
5238;BME280;2639;49.700;7.962;2023-11-21T13:22:56;98629.38;;;12.39;79.57
5238;BME280;2639;49.700;7.962;2023-11-21T13:24:00;98629.53;;;12.29;79.57
5238;BME280;2639;49.700;7.962;2023-11-21T13:25:02;98632.88;;;12.15;80.53
5238;BME280;2639;49.700;7.962;2023-11-21T13:26:10;98629.13;;;12.10;81.40
5238;BME280;2639;49.700;7.962;2023-11-21T13:27:14;98638.22;;;12.05;81.40
5238;BME280;2639;49.700;7.962;2023-11-21T13:28:16;98645.53;;;11.98;82.92
5238;BME280;2639;49.700;7.962;2023-11-21T13:29:22;98645.69;;;11.88;81.87
5238;BME280;2639;49.700;7.962;2023-11-21T13:30:25;98644.94;;;11.77;81.67
5238;BME280;2639;49.700;7.962;2023-11-21T13:31:29;98650.91;;;11.65;82.70
5238;BME280;2639;49.700;7.962;2023-11-21T13:32:34;98656.41;;;11.57;82.41
5238;BME280;2639;49.700;7.962;2023-11-21T13:33:37;98658.56;;;11.51;83.06
5238;BME280;2639;49.700;7.962;2023-11-21T13:34:40;98659.50;;;11.40;82.86
5238;BME280;2639;49.700;7.962;2023-11-21T13:35:46;98659.06;;;11.34;82.79
5238;BME280;2639;49.700;7.962;2023-11-21T13:36:50;98671.25;;;11.25;83.99
5238;BME280;2639;49.700;7.962;2023-11-21T13:38:04;98665.63;;;11.05;83.94